Terminal Aerodrome Forecast
Issued by NWS

Home | Current Version | Previous Version | Text Only | Print | Product List | Glossary On
Versions: 1 2 3 4 5 6 7 8 9 10 11 12
000
FTUS45 KRIW 270500
TAFCOD
TAF
KCOD 270529Z 2706/2806 VRB05KT P6SM VCFG FEW003 SCT080
      TEMPO 2706/2709 3SM BR SCT003
     FM270900 23008KT P6SM VCFG SCT004 SCT040
     FM271500 25013G20KT P6SM SCT050 BKN120 WS020/26040KT
      AMD LTD TO CLD VIS AND WIND=

USA.gov is the U.S. government's official web portal to all federal, state and local government web resources and services.